WetterOnline ( https://www.wetteronline.de )

Wetter aktuell Greifswald

Aktuelles Wetter: Greifswald (6m)

6-stündlich | Neueste Meldungen
Ortszeit Temperatur Wetter
Di, 12.11. 7:00 2.0° C wolkig
Di, 12.11. 1:00 2.5° C wolkig
Mo, 11.11. 19:00 3.0° C leicht bewölkt
Mo, 11.11. 13:00 4.9° C bewölkt
Mo, 11.11. 7:00 3.1° C bedeckt
Mo, 11.11. 1:00 3.5° C bedeckt
So, 10.11. 19:00 4.3° C wolkenlos
So, 10.11. 13:00 7.7° C leicht bewölkt
Ortszeit Temperatur Wetter
Di, 12.11. 9:00 2.7° C bedeckt
Di, 12.11. 8:40 2.6° C bedeckt
Di, 12.11. 8:30 2.5° C bedeckt
Di, 12.11. 8:20 2.5° C bedeckt
Di, 12.11. 8:10 2.4° C bedeckt
Di, 12.11. 8:00 2.2° C bedeckt
Di, 12.11. 7:50 2.2° C bewölkt
Di, 12.11. 7:30 2.1° C wolkig
Di, 12.11. 7:00 2.0° C wolkig
Ortszeit Relative Feuchte Sichtweite
Di, 12.11. 7:00 88% 12 km
Di, 12.11. 1:00 89% 13 km
Mo, 11.11. 19:00 91% 14 km
Mo, 11.11. 13:00 86% 9 km
Mo, 11.11. 7:00 95% 5.0 km
Mo, 11.11. 1:00 99% 3.8 km
So, 10.11. 19:00 93% 10 km
So, 10.11. 13:00 76% 23 km
Ortszeit Relative Feuchte Sichtweite
Di, 12.11. 9:00 86% 15 km
Di, 12.11. 8:40 86% -
Di, 12.11. 8:30 87% 14 km
Di, 12.11. 8:20 87% -
Di, 12.11. 8:10 87% -
Di, 12.11. 8:00 88% 13 km
Di, 12.11. 7:50 88% -
Di, 12.11. 7:30 89% 13 km
Di, 12.11. 7:00 88% 12 km
Ortszeit Niederschlagsmenge Niederschlagsart
Di, 12.11. 7:00 0.0 l/m2 in 12 Std. -
Di, 12.11. 1:00 0.0 l/m2 in 6 Std. -
Mo, 11.11. 19:00 0.0 l/m2 in 12 Std. -
Mo, 11.11. 13:00 0.0 l/m2 in 6 Std. -
Mo, 11.11. 7:00 0.0 l/m2 in 12 Std. -
Mo, 11.11. 1:00 0.0 l/m2 in 6 Std. Nebel
So, 10.11. 19:00 0.0 l/m2 in 12 Std. -
So, 10.11. 13:00 0.0 l/m2 in 6 Std. -
Ortszeit Niederschlagsmenge Niederschlagsart
Di, 12.11. 9:00 0.0 l/m2 in 1 Std. -
Di, 12.11. 8:40 keine Meldung -
Di, 12.11. 8:30 0.0 l/m2 in 1 Std. -
Di, 12.11. 8:20 keine Meldung -
Di, 12.11. 8:10 keine Meldung -
Di, 12.11. 8:00 0.0 l/m2 in 1 Std. -
Di, 12.11. 7:50 keine Meldung -
Di, 12.11. 7:30 0.0 l/m2 in 1 Std. -
Di, 12.11. 7:00 0.0 l/m2 in 1 Std. -
Ortszeit Stärke Spitze Richtung
km/h Bft. km/h Grad Sektor
Di, 12.11. 7:00 9 2 26 170° S
Di, 12.11. 1:00 13 3 31 150° SO
Mo, 11.11. 19:00 11 2 32 150° SO
Mo, 11.11. 13:00 14 3 32 160° S
Mo, 11.11. 7:00 11 2 25 180° S
Mo, 11.11. 1:00 11 2 22 200° S
So, 10.11. 19:00 9 2 15 200° S
So, 10.11. 13:00 9 2 19 270° W
Ortszeit Stärke Spitze Richtung
km/h Bft. km/h Grad Sektor
Di, 12.11. 9:00 9 2 20 180° S
Di, 12.11. 8:40 7 2 - 160° S
Di, 12.11. 8:30 11 2 22 170° S
Di, 12.11. 8:20 11 2 - 170° S
Di, 12.11. 8:10 11 2 - 160° S
Di, 12.11. 8:00 11 2 25 160° S
Di, 12.11. 7:50 11 2 - 160° S
Di, 12.11. 7:30 11 2 25 170° S
Di, 12.11. 7:00 9 2 20 170° S
Ortszeit Untergrenze Bedeckung Gattung
total tief tief mittel hoch
Di, 12.11. 7:00 3000 m 7/8 7/8 - As -
Di, 12.11. 1:00 3900 m 8/8 8/8 - As -
Mo, 11.11. 19:00 10500 m 3/8 0/8 - - Ci
Mo, 11.11. 13:00 240 m 7/8 7/8 Cu - -
Mo, 11.11. 7:00 90 m 8/8 8/8 St - -
Mo, 11.11. 1:00 90 m 8/8 8/8 St - -
So, 10.11. 19:00 - 0/8 0/8 - - -
So, 10.11. 13:00 390 m 2/8 2/8 Cu - -
Ortszeit Bedeckungsgrad in Achtel und Wolkenuntergrenze
Di, 12.11. 9:00 7(1050m)
Di, 12.11. 8:40 8(1320m)
Di, 12.11. 8:30 8(1380m)
Di, 12.11. 8:20 8(1380m)
Di, 12.11. 8:10 1(810m) 8(1380m)
Di, 12.11. 8:00 7(1500m) 8(1380m) 8
Di, 12.11. 7:50 6(780m) 8(3300m) 8(3900m)
Di, 12.11. 7:30 2(780m) 5(3000m) 8(4200m)
Di, 12.11. 7:00 4(3000m) 5(4200m)
Ortszeit Luftdruck NN (hPa) Tendenz (hPa in 3 Std.)
Di, 12.11. 7:00 1005 - 0,3
Di, 12.11. 1:00 1005 - 1,3
Mo, 11.11. 19:00 1008 - 0,7
Mo, 11.11. 13:00 1011 - 1,4
Mo, 11.11. 7:00 1014 - 0,6
Mo, 11.11. 1:00 1015 - 0,6
So, 10.11. 19:00 1015 + 0,8
So, 10.11. 13:00 1014 + 0,5
Ortszeit Luftdruck NN (hPa) Tendenz (hPa in 3 Std.)
Di, 12.11. 9:00 1005 + 0,7
Di, 12.11. 8:40 1005 keine Meldung
Di, 12.11. 8:30 1005 + 0,5
Di, 12.11. 8:20 1005 keine Meldung
Di, 12.11. 8:10 1005 keine Meldung
Di, 12.11. 8:00 1005 + 0,4
Di, 12.11. 7:50 1005 keine Meldung
Di, 12.11. 7:30 1005 + 0,4
Di, 12.11. 7:00 1005 - 0,3
Ortszeit Schneehöhe (cm)
Di, 12.11. 7:00 0
Di, 12.11. 1:00 0
Mo, 11.11. 19:00 0
Mo, 11.11. 13:00 0
Mo, 11.11. 7:00 0
Mo, 11.11. 1:00 0
So, 10.11. 19:00 0
So, 10.11. 13:00 0
Ortszeit Schneehöhe (cm)
Di, 12.11. 9:00 0
Di, 12.11. 8:40 0
Di, 12.11. 8:30 0
Di, 12.11. 8:20 0
Di, 12.11. 8:10 0
Di, 12.11. 8:00 0
Di, 12.11. 7:50 0
Di, 12.11. 7:30 0
Di, 12.11. 7:00 0
Link zu dieser Seite / Seite empfehlen

Das Wetter in ...